sensor_id;sensor_type;location;lat;lon;timestamp;P1;durP1;ratioP1;P2;durP2;ratioP2
22270;SDS011;11304;53.520;10.104;2024-01-27T00:02:00;43.50;;;5.55;;
22270;SDS011;11304;53.520;10.104;2024-01-27T00:04:26;33.88;;;6.18;;
22270;SDS011;11304;53.520;10.104;2024-01-27T00:06:52;33.72;;;5.30;;
22270;SDS011;11304;53.520;10.104;2024-01-27T00:09:18;30.98;;;5.22;;
22270;SDS011;11304;53.520;10.104;2024-01-27T00:11:44;35.92;;;5.43;;
22270;SDS011;11304;53.520;10.104;2024-01-27T00:14:10;29.02;;;4.90;;
22270;SDS011;11304;53.520;10.104;2024-01-27T00:16:36;39.65;;;5.50;;
22270;SDS011;11304;53.520;10.104;2024-01-27T00:19:02;33.17;;;5.60;;
22270;SDS011;11304;53.520;10.104;2024-01-27T00:21:28;36.58;;;5.00;;
22270;SDS011;11304;53.520;10.104;2024-01-27T00:23:54;31.08;;;4.85;;
22270;SDS011;11304;53.520;10.104;2024-01-27T00:26:25;37.85;;;5.93;;
22270;SDS011;11304;53.520;10.104;2024-01-27T00:28:51;38.00;;;5.82;;
22270;SDS011;11304;53.520;10.104;2024-01-27T00:31:18;29.52;;;5.10;;
22270;SDS011;11304;53.520;10.104;2024-01-27T00:33:44;47.53;;;5.13;;
22270;SDS011;11304;53.520;10.104;2024-01-27T00:36:10;32.88;;;5.70;;
22270;SDS011;11304;53.520;10.104;2024-01-27T00:38:36;33.10;;;6.03;;
22270;SDS011;11304;53.520;10.104;2024-01-27T00:41:03;33.60;;;5.35;;
22270;SDS011;11304;53.520;10.104;2024-01-27T00:43:30;37.00;;;4.82;;
22270;SDS011;11304;53.520;10.104;2024-01-27T00:45:56;27.33;;;5.20;;
22270;SDS011;11304;53.520;10.104;2024-01-27T00:48:22;30.88;;;5.30;;
22270;SDS011;11304;53.520;10.104;2024-01-27T00:50:48;34.25;;;5.38;;
22270;SDS011;11304;53.520;10.104;2024-01-27T00:53:14;39.45;;;5.68;;
22270;SDS011;11304;53.520;10.104;2024-01-27T00:55:40;37.08;;;5.43;;
22270;SDS011;11304;53.520;10.104;2024-01-27T00:58:07;35.97;;;5.30;;
22270;SDS011;11304;53.520;10.104;2024-01-27T01:00:33;26.48;;;4.55;;
22270;SDS011;11304;53.520;10.104;2024-01-27T01:02:59;38.25;;;6.20;;
22270;SDS011;11304;53.520;10.104;2024-01-27T01:05:25;34.03;;;5.30;;
22270;SDS011;11304;53.520;10.104;2024-01-27T01:07:51;39.17;;;7.03;;
22270;SDS011;11304;53.520;10.104;2024-01-27T01:10:17;44.17;;;7.03;;
22270;SDS011;11304;53.520;10.104;2024-01-27T01:12:43;33.72;;;6.38;;
22270;SDS011;11304;53.520;10.104;2024-01-27T01:15:09;35.97;;;5.78;;
22270;SDS011;11304;53.520;10.104;2024-01-27T01:17:35;30.95;;;5.78;;
22270;SDS011;11304;53.520;10.104;2024-01-27T01:20:02;30.63;;;4.90;;
22270;SDS011;11304;53.520;10.104;2024-01-27T01:22:28;37.25;;;5.10;;
22270;SDS011;11304;53.520;10.104;2024-01-27T01:24:54;42.88;;;6.00;;
22270;SDS011;11304;53.520;10.104;2024-01-27T01:27:20;38.20;;;5.63;;
22270;SDS011;11304;53.520;10.104;2024-01-27T01:29:46;32.58;;;5.95;;
22270;SDS011;11304;53.520;10.104;2024-01-27T01:32:12;37.33;;;6.13;;
22270;SDS011;11304;53.520;10.104;2024-01-27T01:34:39;37.22;;;5.45;;
22270;SDS011;11304;53.520;10.104;2024-01-27T01:37:05;33.30;;;5.40;;
22270;SDS011;11304;53.520;10.104;2024-01-27T01:39:31;42.58;;;5.93;;
22270;SDS011;11304;53.520;10.104;2024-01-27T01:41:57;32.30;;;5.80;;
22270;SDS011;11304;53.520;10.104;2024-01-27T01:44:25;45.50;;;6.28;;
22270;SDS011;11304;53.520;10.104;2024-01-27T01:46:55;22.48;;;4.50;;
22270;SDS011;11304;53.520;10.104;2024-01-27T01:49:21;34.92;;;6.15;;
22270;SDS011;11304;53.520;10.104;2024-01-27T01:51:47;36.70;;;6.55;;
22270;SDS011;11304;53.520;10.104;2024-01-27T01:54:14;29.35;;;5.28;;
22270;SDS011;11304;53.520;10.104;2024-01-27T01:56:40;28.42;;;6.07;;
22270;SDS011;11304;53.520;10.104;2024-01-27T01:59:07;38.70;;;5.07;;
22270;SDS011;11304;53.520;10.104;2024-01-27T02:01:34;33.30;;;5.93;;
22270;SDS011;11304;53.520;10.104;2024-01-27T02:04:00;35.13;;;5.55;;
22270;SDS011;11304;53.520;10.104;2024-01-27T02:06:26;33.97;;;5.50;;
22270;SDS011;11304;53.520;10.104;2024-01-27T02:08:52;32.78;;;5.15;;
22270;SDS011;11304;53.520;10.104;2024-01-27T02:11:18;34.15;;;5.32;;
22270;SDS011;11304;53.520;10.104;2024-01-27T02:13:44;44.90;;;5.38;;
22270;SDS011;11304;53.520;10.104;2024-01-27T02:16:10;38.25;;;5.65;;
22270;SDS011;11304;53.520;10.104;2024-01-27T02:18:36;31.98;;;5.32;;
22270;SDS011;11304;53.520;10.104;2024-01-27T02:21:03;27.85;;;4.70;;
22270;SDS011;11304;53.520;10.104;2024-01-27T02:23:29;29.05;;;5.00;;
22270;SDS011;11304;53.520;10.104;2024-01-27T02:25:55;41.55;;;4.90;;
22270;SDS011;11304;53.520;10.104;2024-01-27T02:28:22;24.25;;;4.43;;
22270;SDS011;11304;53.520;10.104;2024-01-27T02:30:48;32.80;;;5.97;;
22270;SDS011;11304;53.520;10.104;2024-01-27T02:33:15;35.65;;;5.72;;
22270;SDS011;11304;53.520;10.104;2024-01-27T02:35:41;28.42;;;5.05;;
22270;SDS011;11304;53.520;10.104;2024-01-27T02:38:08;37.85;;;5.88;;
22270;SDS011;11304;53.520;10.104;2024-01-27T02:40:34;35.90;;;5.25;;
22270;SDS011;11304;53.520;10.104;2024-01-27T02:43:00;40.50;;;5.22;;
22270;SDS011;11304;53.520;10.104;2024-01-27T02:45:27;36.00;;;6.43;;
22270;SDS011;11304;53.520;10.104;2024-01-27T02:47:53;32.08;;;4.53;;
22270;SDS011;11304;53.520;10.104;2024-01-27T02:50:19;30.23;;;4.10;;
22270;SDS011;11304;53.520;10.104;2024-01-27T02:52:45;28.92;;;5.30;;
22270;SDS011;11304;53.520;10.104;2024-01-27T02:55:11;30.85;;;5.07;;
22270;SDS011;11304;53.520;10.104;2024-01-27T02:57:37;37.75;;;5.93;;
22270;SDS011;11304;53.520;10.104;2024-01-27T03:00:03;30.35;;;4.57;;
22270;SDS011;11304;53.520;10.104;2024-01-27T03:02:30;32.10;;;5.10;;
22270;SDS011;11304;53.520;10.104;2024-01-27T03:04:56;30.77;;;4.60;;
22270;SDS011;11304;53.520;10.104;2024-01-27T03:07:22;36.05;;;4.80;;
22270;SDS011;11304;53.520;10.104;2024-01-27T03:09:48;30.45;;;4.90;;
22270;SDS011;11304;53.520;10.104;2024-01-27T03:12:15;29.92;;;4.65;;
22270;SDS011;11304;53.520;10.104;2024-01-27T03:14:41;27.85;;;5.30;;
22270;SDS011;11304;53.520;10.104;2024-01-27T03:17:07;32.33;;;5.95;;
22270;SDS011;11304;53.520;10.104;2024-01-27T03:19:34;35.83;;;4.75;;
22270;SDS011;11304;53.520;10.104;2024-01-27T03:22:00;38.30;;;5.78;;
22270;SDS011;11304;53.520;10.104;2024-01-27T03:24:26;36.13;;;5.32;;
22270;SDS011;11304;53.520;10.104;2024-01-27T03:26:53;30.20;;;5.38;;
22270;SDS011;11304;53.520;10.104;2024-01-27T03:29:19;40.35;;;5.57;;
22270;SDS011;11304;53.520;10.104;2024-01-27T03:31:45;26.67;;;5.05;;
22270;SDS011;11304;53.520;10.104;2024-01-27T03:34:11;30.33;;;5.07;;
22270;SDS011;11304;53.520;10.104;2024-01-27T03:36:37;32.17;;;5.57;;
22270;SDS011;11304;53.520;10.104;2024-01-27T03:39:03;36.75;;;5.22;;
22270;SDS011;11304;53.520;10.104;2024-01-27T03:41:29;29.10;;;5.65;;
22270;SDS011;11304;53.520;10.104;2024-01-27T03:43:55;38.40;;;5.80;;
22270;SDS011;11304;53.520;10.104;2024-01-27T03:46:22;41.20;;;5.55;;
22270;SDS011;11304;53.520;10.104;2024-01-27T03:48:48;37.15;;;5.28;;
22270;SDS011;11304;53.520;10.104;2024-01-27T03:51:14;33.78;;;5.53;;
22270;SDS011;11304;53.520;10.104;2024-01-27T03:53:40;36.17;;;5.65;;
22270;SDS011;11304;53.520;10.104;2024-01-27T03:56:06;33.70;;;6.28;;
22270;SDS011;11304;53.520;10.104;2024-01-27T03:58:32;37.15;;;5.82;;
22270;SDS011;11304;53.520;10.104;2024-01-27T04:00:58;39.92;;;5.47;;
22270;SDS011;11304;53.520;10.104;2024-01-27T04:03:24;30.85;;;4.95;;
22270;SDS011;11304;53.520;10.104;2024-01-27T04:05:51;40.80;;;5.68;;
22270;SDS011;11304;53.520;10.104;2024-01-27T04:08:17;40.30;;;5.72;;
22270;SDS011;11304;53.520;10.104;2024-01-27T04:10:43;28.25;;;5.22;;
22270;SDS011;11304;53.520;10.104;2024-01-27T04:13:09;38.50;;;4.70;;
22270;SDS011;11304;53.520;10.104;2024-01-27T04:15:35;34.05;;;5.28;;
22270;SDS011;11304;53.520;10.104;2024-01-27T04:18:04;33.70;;;5.43;;
22270;SDS011;11304;53.520;10.104;2024-01-27T04:20:33;36.80;;;5.28;;
22270;SDS011;11304;53.520;10.104;2024-01-27T04:22:59;30.30;;;4.47;;
22270;SDS011;11304;53.520;10.104;2024-01-27T04:25:25;29.88;;;5.20;;
22270;SDS011;11304;53.520;10.104;2024-01-27T04:27:51;25.60;;;4.65;;
22270;SDS011;11304;53.520;10.104;2024-01-27T04:30:18;40.13;;;5.13;;
22270;SDS011;11304;53.520;10.104;2024-01-27T04:32:44;37.47;;;4.72;;
22270;SDS011;11304;53.520;10.104;2024-01-27T04:35:10;33.97;;;4.82;;
22270;SDS011;11304;53.520;10.104;2024-01-27T04:37:37;31.75;;;4.57;;
22270;SDS011;11304;53.520;10.104;2024-01-27T04:40:04;36.85;;;5.38;;
22270;SDS011;11304;53.520;10.104;2024-01-27T04:42:32;30.70;;;5.18;;
22270;SDS011;11304;53.520;10.104;2024-01-27T04:44:58;33.08;;;4.95;;
22270;SDS011;11304;53.520;10.104;2024-01-27T04:47:25;33.67;;;5.03;;
22270;SDS011;11304;53.520;10.104;2024-01-27T04:49:51;28.95;;;4.80;;
22270;SDS011;11304;53.520;10.104;2024-01-27T04:52:17;32.53;;;5.30;;
22270;SDS011;11304;53.520;10.104;2024-01-27T04:54:43;27.40;;;4.85;;
22270;SDS011;11304;53.520;10.104;2024-01-27T04:57:09;30.55;;;4.95;;
22270;SDS011;11304;53.520;10.104;2024-01-27T04:59:35;33.92;;;5.43;;
22270;SDS011;11304;53.520;10.104;2024-01-27T05:02:01;35.45;;;5.97;;
22270;SDS011;11304;53.520;10.104;2024-01-27T05:04:27;38.70;;;5.82;;
22270;SDS011;11304;53.520;10.104;2024-01-27T05:06:53;33.95;;;5.13;;
22270;SDS011;11304;53.520;10.104;2024-01-27T05:09:20;34.67;;;5.45;;
22270;SDS011;11304;53.520;10.104;2024-01-27T05:11:46;31.13;;;5.65;;
22270;SDS011;11304;53.520;10.104;2024-01-27T05:14:13;35.30;;;5.95;;
22270;SDS011;11304;53.520;10.104;2024-01-27T05:16:39;39.95;;;6.75;;
22270;SDS011;11304;53.520;10.104;2024-01-27T05:19:05;33.53;;;5.32;;
22270;SDS011;11304;53.520;10.104;2024-01-27T05:21:31;31.17;;;4.97;;
22270;SDS011;11304;53.520;10.104;2024-01-27T05:23:57;30.95;;;6.15;;
22270;SDS011;11304;53.520;10.104;2024-01-27T05:26:23;27.55;;;4.78;;
22270;SDS011;11304;53.520;10.104;2024-01-27T05:28:50;28.05;;;5.03;;
22270;SDS011;11304;53.520;10.104;2024-01-27T05:31:16;34.60;;;5.72;;
22270;SDS011;11304;53.520;10.104;2024-01-27T05:33:42;32.50;;;6.15;;
22270;SDS011;11304;53.520;10.104;2024-01-27T05:36:08;35.03;;;5.57;;
22270;SDS011;11304;53.520;10.104;2024-01-27T05:38:34;33.10;;;5.25;;
22270;SDS011;11304;53.520;10.104;2024-01-27T05:41:01;33.85;;;5.63;;
22270;SDS011;11304;53.520;10.104;2024-01-27T05:43:27;34.65;;;5.80;;
22270;SDS011;11304;53.520;10.104;2024-01-27T05:45:53;34.53;;;5.40;;
22270;SDS011;11304;53.520;10.104;2024-01-27T05:48:19;33.60;;;5.68;;
22270;SDS011;11304;53.520;10.104;2024-01-27T05:50:58;29.95;;;5.07;;
22270;SDS011;11304;53.520;10.104;2024-01-27T05:53:25;43.13;;;4.95;;
22270;SDS011;11304;53.520;10.104;2024-01-27T05:55:51;32.00;;;5.20;;
22270;SDS011;11304;53.520;10.104;2024-01-27T05:58:21;30.00;;;5.40;;
22270;SDS011;11304;53.520;10.104;2024-01-27T06:00:48;30.60;;;5.38;;
22270;SDS011;11304;53.520;10.104;2024-01-27T06:03:14;41.00;;;6.47;;
22270;SDS011;11304;53.520;10.104;2024-01-27T06:05:42;29.13;;;5.10;;
22270;SDS011;11304;53.520;10.104;2024-01-27T06:08:08;32.17;;;5.20;;
22270;SDS011;11304;53.520;10.104;2024-01-27T06:10:34;24.33;;;4.68;;
22270;SDS011;11304;53.520;10.104;2024-01-27T06:13:02;39.25;;;5.07;;
22270;SDS011;11304;53.520;10.104;2024-01-27T06:15:28;34.35;;;5.40;;
22270;SDS011;11304;53.520;10.104;2024-01-27T06:17:54;32.83;;;5.60;;
22270;SDS011;11304;53.520;10.104;2024-01-27T06:20:20;30.80;;;4.90;;
22270;SDS011;11304;53.520;10.104;2024-01-27T06:22:46;26.67;;;4.38;;
22270;SDS011;11304;53.520;10.104;2024-01-27T06:25:12;35.40;;;4.57;;
22270;SDS011;11304;53.520;10.104;2024-01-27T06:27:38;29.98;;;4.53;;
22270;SDS011;11304;53.520;10.104;2024-01-27T06:30:07;28.90;;;5.03;;
22270;SDS011;11304;53.520;10.104;2024-01-27T06:32:33;24.73;;;4.55;;
22270;SDS011;11304;53.520;10.104;2024-01-27T06:34:59;31.73;;;4.90;;
22270;SDS011;11304;53.520;10.104;2024-01-27T06:37:25;29.55;;;4.70;;
22270;SDS011;11304;53.520;10.104;2024-01-27T06:39:51;30.42;;;4.97;;
22270;SDS011;11304;53.520;10.104;2024-01-27T06:42:17;29.30;;;4.30;;
22270;SDS011;11304;53.520;10.104;2024-01-27T06:44:43;31.67;;;4.60;;
22270;SDS011;11304;53.520;10.104;2024-01-27T06:47:09;30.25;;;4.45;;
22270;SDS011;11304;53.520;10.104;2024-01-27T06:49:35;48.33;;;5.80;;
22270;SDS011;11304;53.520;10.104;2024-01-27T06:52:02;38.35;;;5.00;;
22270;SDS011;11304;53.520;10.104;2024-01-27T06:54:28;29.13;;;4.38;;
22270;SDS011;11304;53.520;10.104;2024-01-27T06:56:54;32.88;;;4.95;;
22270;SDS011;11304;53.520;10.104;2024-01-27T06:59:20;31.80;;;5.05;;
22270;SDS011;11304;53.520;10.104;2024-01-27T07:01:49;29.27;;;3.85;;
22270;SDS011;11304;53.520;10.104;2024-01-27T07:04:15;27.38;;;4.50;;
22270;SDS011;11304;53.520;10.104;2024-01-27T07:06:42;41.00;;;4.47;;
22270;SDS011;11304;53.520;10.104;2024-01-27T07:09:08;37.97;;;5.25;;
22270;SDS011;11304;53.520;10.104;2024-01-27T07:11:37;26.63;;;4.70;;
22270;SDS011;11304;53.520;10.104;2024-01-27T07:14:04;25.10;;;4.47;;
22270;SDS011;11304;53.520;10.104;2024-01-27T07:16:31;34.75;;;4.88;;
22270;SDS011;11304;53.520;10.104;2024-01-27T07:18:59;30.73;;;4.82;;
22270;SDS011;11304;53.520;10.104;2024-01-27T07:21:25;31.80;;;4.40;;
22270;SDS011;11304;53.520;10.104;2024-01-27T07:23:54;33.13;;;4.40;;
22270;SDS011;11304;53.520;10.104;2024-01-27T07:26:20;28.38;;;4.30;;
22270;SDS011;11304;53.520;10.104;2024-01-27T07:28:46;31.20;;;4.15;;
22270;SDS011;11304;53.520;10.104;2024-01-27T07:31:12;29.02;;;4.72;;
22270;SDS011;11304;53.520;10.104;2024-01-27T07:33:39;30.40;;;4.45;;
22270;SDS011;11304;53.520;10.104;2024-01-27T07:36:05;30.92;;;3.85;;
22270;SDS011;11304;53.520;10.104;2024-01-27T07:38:32;30.20;;;4.00;;
22270;SDS011;11304;53.520;10.104;2024-01-27T07:40:58;25.02;;;4.00;;
22270;SDS011;11304;53.520;10.104;2024-01-27T07:43:25;29.55;;;4.47;;
22270;SDS011;11304;53.520;10.104;2024-01-27T07:45:52;22.38;;;4.30;;
22270;SDS011;11304;53.520;10.104;2024-01-27T07:48:19;36.45;;;4.47;;
22270;SDS011;11304;53.520;10.104;2024-01-27T07:50:46;29.13;;;5.18;;
22270;SDS011;11304;53.520;10.104;2024-01-27T07:53:14;29.60;;;4.63;;
22270;SDS011;11304;53.520;10.104;2024-01-27T07:55:40;39.63;;;4.88;;
22270;SDS011;11304;53.520;10.104;2024-01-27T07:58:06;28.23;;;4.30;;
22270;SDS011;11304;53.520;10.104;2024-01-27T08:00:32;30.48;;;4.78;;
22270;SDS011;11304;53.520;10.104;2024-01-27T08:02:58;26.58;;;4.00;;
22270;SDS011;11304;53.520;10.104;2024-01-27T08:05:24;28.88;;;4.20;;
22270;SDS011;11304;53.520;10.104;2024-01-27T08:07:50;23.60;;;4.60;;
22270;SDS011;11304;53.520;10.104;2024-01-27T08:10:17;29.42;;;4.95;;
22270;SDS011;11304;53.520;10.104;2024-01-27T08:12:43;25.83;;;5.13;;
22270;SDS011;11304;53.520;10.104;2024-01-27T08:15:09;22.10;;;5.15;;
22270;SDS011;11304;53.520;10.104;2024-01-27T08:17:35;31.42;;;5.10;;
22270;SDS011;11304;53.520;10.104;2024-01-27T08:20:01;30.92;;;4.78;;
22270;SDS011;11304;53.520;10.104;2024-01-27T08:22:27;28.15;;;4.50;;
22270;SDS011;11304;53.520;10.104;2024-01-27T08:24:54;28.60;;;5.07;;
22270;SDS011;11304;53.520;10.104;2024-01-27T08:27:20;28.60;;;5.40;;
22270;SDS011;11304;53.520;10.104;2024-01-27T08:29:46;28.45;;;4.68;;
22270;SDS011;11304;53.520;10.104;2024-01-27T08:32:12;17.55;;;3.80;;
22270;SDS011;11304;53.520;10.104;2024-01-27T08:34:38;26.50;;;4.47;;
22270;SDS011;11304;53.520;10.104;2024-01-27T08:37:13;27.95;;;5.18;;
22270;SDS011;11304;53.520;10.104;2024-01-27T08:39:40;31.10;;;5.93;;
22270;SDS011;11304;53.520;10.104;2024-01-27T08:42:06;36.25;;;5.97;;
22270;SDS011;11304;53.520;10.104;2024-01-27T08:44:32;30.30;;;5.50;;
22270;SDS011;11304;53.520;10.104;2024-01-27T08:46:58;28.08;;;5.22;;
22270;SDS011;11304;53.520;10.104;2024-01-27T08:49:24;30.27;;;5.07;;
22270;SDS011;11304;53.520;10.104;2024-01-27T08:51:50;25.92;;;5.03;;
22270;SDS011;11304;53.520;10.104;2024-01-27T08:54:16;33.70;;;5.68;;
22270;SDS011;11304;53.520;10.104;2024-01-27T08:56:42;23.85;;;4.35;;
22270;SDS011;11304;53.520;10.104;2024-01-27T08:59:09;19.33;;;4.40;;
22270;SDS011;11304;53.520;10.104;2024-01-27T09:01:35;23.98;;;4.82;;
22270;SDS011;11304;53.520;10.104;2024-01-27T09:04:01;18.55;;;3.85;;
22270;SDS011;11304;53.520;10.104;2024-01-27T09:06:27;21.63;;;4.03;;
22270;SDS011;11304;53.520;10.104;2024-01-27T09:08:53;26.60;;;3.85;;
22270;SDS011;11304;53.520;10.104;2024-01-27T09:11:19;20.67;;;3.95;;
22270;SDS011;11304;53.520;10.104;2024-01-27T09:13:47;16.35;;;3.58;;
22270;SDS011;11304;53.520;10.104;2024-01-27T09:16:16;21.73;;;3.92;;
22270;SDS011;11304;53.520;10.104;2024-01-27T09:18:42;19.60;;;3.88;;
22270;SDS011;11304;53.520;10.104;2024-01-27T09:21:09;22.17;;;4.57;;
22270;SDS011;11304;53.520;10.104;2024-01-27T09:23:35;23.52;;;4.38;;
22270;SDS011;11304;53.520;10.104;2024-01-27T09:26:03;20.33;;;4.20;;
22270;SDS011;11304;53.520;10.104;2024-01-27T09:28:30;20.00;;;4.07;;
22270;SDS011;11304;53.520;10.104;2024-01-27T09:30:56;19.23;;;3.90;;
22270;SDS011;11304;53.520;10.104;2024-01-27T09:33:23;22.80;;;4.45;;
22270;SDS011;11304;53.520;10.104;2024-01-27T09:35:49;26.90;;;5.05;;
22270;SDS011;11304;53.520;10.104;2024-01-27T09:38:15;23.92;;;4.93;;
22270;SDS011;11304;53.520;10.104;2024-01-27T09:40:41;19.65;;;4.25;;
22270;SDS011;11304;53.520;10.104;2024-01-27T09:43:08;24.75;;;4.45;;
22270;SDS011;11304;53.520;10.104;2024-01-27T09:45:37;24.98;;;4.70;;
22270;SDS011;11304;53.520;10.104;2024-01-27T09:48:04;29.55;;;4.68;;
22270;SDS011;11304;53.520;10.104;2024-01-27T09:50:31;20.23;;;4.00;;
22270;SDS011;11304;53.520;10.104;2024-01-27T09:52:57;19.80;;;3.78;;
22270;SDS011;11304;53.520;10.104;2024-01-27T09:55:23;23.05;;;4.43;;
22270;SDS011;11304;53.520;10.104;2024-01-27T09:57:49;22.70;;;4.13;;
22270;SDS011;11304;53.520;10.104;2024-01-27T10:00:15;24.27;;;4.57;;
22270;SDS011;11304;53.520;10.104;2024-01-27T10:02:42;18.83;;;3.92;;
22270;SDS011;11304;53.520;10.104;2024-01-27T10:05:08;23.80;;;4.45;;
22270;SDS011;11304;53.520;10.104;2024-01-27T10:07:34;22.25;;;4.55;;
22270;SDS011;11304;53.520;10.104;2024-01-27T10:10:01;18.88;;;3.83;;
22270;SDS011;11304;53.520;10.104;2024-01-27T10:12:28;19.50;;;4.70;;
22270;SDS011;11304;53.520;10.104;2024-01-27T10:14:54;24.48;;;4.57;;
22270;SDS011;11304;53.520;10.104;2024-01-27T10:17:23;23.50;;;4.20;;
22270;SDS011;11304;53.520;10.104;2024-01-27T10:20:03;25.40;;;4.30;;
22270;SDS011;11304;53.520;10.104;2024-01-27T10:22:39;22.17;;;4.00;;
22270;SDS011;11304;53.520;10.104;2024-01-27T10:25:08;23.67;;;4.05;;
22270;SDS011;11304;53.520;10.104;2024-01-27T10:27:35;22.65;;;4.00;;
22270;SDS011;11304;53.520;10.104;2024-01-27T10:30:01;22.30;;;4.55;;
22270;SDS011;11304;53.520;10.104;2024-01-27T10:32:27;20.73;;;3.83;;
22270;SDS011;11304;53.520;10.104;2024-01-27T10:35:04;22.83;;;3.88;;
22270;SDS011;11304;53.520;10.104;2024-01-27T10:37:30;23.83;;;5.60;;
22270;SDS011;11304;53.520;10.104;2024-01-27T10:40:14;15.68;;;3.88;;
22270;SDS011;11304;53.520;10.104;2024-01-27T10:42:41;16.98;;;3.83;;
22270;SDS011;11304;53.520;10.104;2024-01-27T10:45:08;21.20;;;4.47;;
22270;SDS011;11304;53.520;10.104;2024-01-27T10:47:35;27.48;;;4.03;;
22270;SDS011;11304;53.520;10.104;2024-01-27T10:50:02;25.05;;;4.60;;
22270;SDS011;11304;53.520;10.104;2024-01-27T10:52:32;22.67;;;4.72;;
22270;SDS011;11304;53.520;10.104;2024-01-27T10:54:59;24.02;;;4.53;;
22270;SDS011;11304;53.520;10.104;2024-01-27T10:57:26;23.27;;;4.38;;
22270;SDS011;11304;53.520;10.104;2024-01-27T10:59:53;26.02;;;4.43;;
22270;SDS011;11304;53.520;10.104;2024-01-27T11:02:19;18.15;;;4.10;;
22270;SDS011;11304;53.520;10.104;2024-01-27T11:04:47;24.30;;;3.90;;
22270;SDS011;11304;53.520;10.104;2024-01-27T11:07:14;20.45;;;4.25;;
22270;SDS011;11304;53.520;10.104;2024-01-27T11:09:40;23.42;;;4.40;;
22270;SDS011;11304;53.520;10.104;2024-01-27T11:12:08;17.90;;;3.45;;
22270;SDS011;11304;53.520;10.104;2024-01-27T11:14:35;18.48;;;4.20;;
22270;SDS011;11304;53.520;10.104;2024-01-27T11:17:01;19.80;;;5.10;;
22270;SDS011;11304;53.520;10.104;2024-01-27T11:19:27;22.65;;;3.90;;
22270;SDS011;11304;53.520;10.104;2024-01-27T11:22:00;19.83;;;4.18;;
22270;SDS011;11304;53.520;10.104;2024-01-27T11:24:26;17.40;;;4.05;;
22270;SDS011;11304;53.520;10.104;2024-01-27T11:27:02;20.42;;;3.92;;
22270;SDS011;11304;53.520;10.104;2024-01-27T11:29:28;19.48;;;4.18;;
22270;SDS011;11304;53.520;10.104;2024-01-27T11:31:57;16.55;;;3.22;;
22270;SDS011;11304;53.520;10.104;2024-01-27T11:34:23;19.77;;;3.97;;
22270;SDS011;11304;53.520;10.104;2024-01-27T11:36:49;17.95;;;3.95;;
22270;SDS011;11304;53.520;10.104;2024-01-27T11:39:25;15.93;;;4.03;;
22270;SDS011;11304;53.520;10.104;2024-01-27T11:41:52;20.70;;;4.10;;
22270;SDS011;11304;53.520;10.104;2024-01-27T11:44:18;19.75;;;3.75;;
22270;SDS011;11304;53.520;10.104;2024-01-27T11:46:45;23.80;;;3.90;;
22270;SDS011;11304;53.520;10.104;2024-01-27T11:49:17;19.80;;;3.53;;
22270;SDS011;11304;53.520;10.104;2024-01-27T11:51:45;21.40;;;4.25;;
22270;SDS011;11304;53.520;10.104;2024-01-27T11:54:11;24.92;;;4.43;;
22270;SDS011;11304;53.520;10.104;2024-01-27T11:56:38;19.83;;;4.30;;
22270;SDS011;11304;53.520;10.104;2024-01-27T11:59:04;24.05;;;4.15;;
22270;SDS011;11304;53.520;10.104;2024-01-27T12:01:30;17.45;;;3.97;;
22270;SDS011;11304;53.520;10.104;2024-01-27T12:03:56;18.95;;;3.78;;
22270;SDS011;11304;53.520;10.104;2024-01-27T12:06:22;22.77;;;4.32;;
22270;SDS011;11304;53.520;10.104;2024-01-27T12:08:49;21.13;;;5.32;;
22270;SDS011;11304;53.520;10.104;2024-01-27T12:11:18;15.77;;;3.55;;
22270;SDS011;11304;53.520;10.104;2024-01-27T12:13:44;18.52;;;3.90;;
22270;SDS011;11304;53.520;10.104;2024-01-27T12:16:10;22.23;;;3.88;;
22270;SDS011;11304;53.520;10.104;2024-01-27T12:18:36;18.67;;;4.28;;
22270;SDS011;11304;53.520;10.104;2024-01-27T12:21:02;27.35;;;4.45;;
22270;SDS011;11304;53.520;10.104;2024-01-27T12:23:29;16.73;;;3.50;;
22270;SDS011;11304;53.520;10.104;2024-01-27T12:25:55;16.83;;;4.25;;
22270;SDS011;11304;53.520;10.104;2024-01-27T12:28:22;19.27;;;3.80;;
22270;SDS011;11304;53.520;10.104;2024-01-27T12:30:51;19.95;;;4.30;;
22270;SDS011;11304;53.520;10.104;2024-01-27T12:33:18;27.70;;;4.82;;
22270;SDS011;11304;53.520;10.104;2024-01-27T12:35:48;21.65;;;4.25;;
22270;SDS011;11304;53.520;10.104;2024-01-27T12:38:14;17.13;;;3.67;;
22270;SDS011;11304;53.520;10.104;2024-01-27T12:40:40;21.35;;;3.85;;
22270;SDS011;11304;53.520;10.104;2024-01-27T12:43:06;22.80;;;4.28;;
22270;SDS011;11304;53.520;10.104;2024-01-27T12:45:33;20.02;;;3.97;;
22270;SDS011;11304;53.520;10.104;2024-01-27T12:48:00;23.33;;;4.70;;
22270;SDS011;11304;53.520;10.104;2024-01-27T12:50:27;22.25;;;3.78;;
22270;SDS011;11304;53.520;10.104;2024-01-27T12:52:53;22.63;;;4.38;;
22270;SDS011;11304;53.520;10.104;2024-01-27T12:55:19;18.30;;;4.07;;
22270;SDS011;11304;53.520;10.104;2024-01-27T12:57:46;15.57;;;3.92;;
22270;SDS011;11304;53.520;10.104;2024-01-27T13:00:12;18.55;;;3.90;;
22270;SDS011;11304;53.520;10.104;2024-01-27T13:02:40;23.63;;;3.78;;
22270;SDS011;11304;53.520;10.104;2024-01-27T13:05:06;19.20;;;3.55;;
22270;SDS011;11304;53.520;10.104;2024-01-27T13:07:32;15.93;;;3.30;;
22270;SDS011;11304;53.520;10.104;2024-01-27T13:09:58;16.30;;;3.72;;
22270;SDS011;11304;53.520;10.104;2024-01-27T13:12:24;15.60;;;3.78;;
22270;SDS011;11304;53.520;10.104;2024-01-27T13:14:51;21.42;;;3.78;;
22270;SDS011;11304;53.520;10.104;2024-01-27T13:17:17;16.30;;;3.53;;
22270;SDS011;11304;53.520;10.104;2024-01-27T13:19:44;19.20;;;4.28;;
22270;SDS011;11304;53.520;10.104;2024-01-27T13:22:11;15.70;;;3.42;;
22270;SDS011;11304;53.520;10.104;2024-01-27T13:24:37;21.80;;;3.70;;
22270;SDS011;11304;53.520;10.104;2024-01-27T13:27:03;16.83;;;3.28;;
22270;SDS011;11304;53.520;10.104;2024-01-27T13:29:30;21.67;;;4.10;;
22270;SDS011;11304;53.520;10.104;2024-01-27T13:31:57;21.08;;;4.85;;
22270;SDS011;11304;53.520;10.104;2024-01-27T13:34:26;19.55;;;4.03;;
22270;SDS011;11304;53.520;10.104;2024-01-27T13:39:22;20.52;;;3.78;;
22270;SDS011;11304;53.520;10.104;2024-01-27T13:41:48;21.92;;;4.28;;
22270;SDS011;11304;53.520;10.104;2024-01-27T13:44:14;21.02;;;4.13;;
22270;SDS011;11304;53.520;10.104;2024-01-27T13:46:40;19.92;;;4.35;;
22270;SDS011;11304;53.520;10.104;2024-01-27T13:49:06;17.88;;;4.03;;
22270;SDS011;11304;53.520;10.104;2024-01-27T13:51:32;20.83;;;3.85;;
22270;SDS011;11304;53.520;10.104;2024-01-27T13:53:58;20.92;;;4.28;;
22270;SDS011;11304;53.520;10.104;2024-01-27T13:56:24;18.67;;;3.75;;
22270;SDS011;11304;53.520;10.104;2024-01-27T13:58:51;23.20;;;4.18;;
22270;SDS011;11304;53.520;10.104;2024-01-27T14:01:17;22.77;;;3.90;;
22270;SDS011;11304;53.520;10.104;2024-01-27T14:03:44;22.95;;;4.10;;
22270;SDS011;11304;53.520;10.104;2024-01-27T14:06:10;19.70;;;4.43;;
22270;SDS011;11304;53.520;10.104;2024-01-27T14:08:38;22.60;;;3.97;;
22270;SDS011;11304;53.520;10.104;2024-01-27T14:11:04;19.67;;;4.43;;
22270;SDS011;11304;53.520;10.104;2024-01-27T14:13:30;19.90;;;4.43;;
22270;SDS011;11304;53.520;10.104;2024-01-27T14:15:56;26.27;;;4.78;;
22270;SDS011;11304;53.520;10.104;2024-01-27T14:18:23;20.42;;;4.00;;
22270;SDS011;11304;53.520;10.104;2024-01-27T14:20:49;19.73;;;4.15;;